sensor_id;sensor_type;location;lat;lon;timestamp;P1;durP1;ratioP1;P2;durP2;ratioP2
77591;SDS011;66891;46.884;17.436;2024-03-23T00:55:14;8.90;;;3.28;;
77591;SDS011;66891;46.884;17.436;2024-03-23T00:57:40;9.85;;;3.13;;
77591;SDS011;66891;46.884;17.436;2024-03-23T01:00:06;10.48;;;3.33;;
77591;SDS011;66891;46.884;17.436;2024-03-23T01:02:32;9.30;;;3.00;;
77591;SDS011;66891;46.884;17.436;2024-03-23T01:04:58;8.80;;;2.70;;
77591;SDS011;66891;46.884;17.436;2024-03-23T01:07:24;9.32;;;2.90;;
77591;SDS011;66891;46.884;17.436;2024-03-23T01:09:50;14.48;;;3.58;;
77591;SDS011;66891;46.884;17.436;2024-03-23T01:12:19;8.17;;;2.67;;
77591;SDS011;66891;46.884;17.436;2024-03-23T01:14:45;8.77;;;2.53;;
77591;SDS011;66891;46.884;17.436;2024-03-23T01:17:11;9.90;;;3.15;;
77591;SDS011;66891;46.884;17.436;2024-03-23T01:19:37;10.43;;;2.85;;
77591;SDS011;66891;46.884;17.436;2024-03-23T01:22:05;9.67;;;3.27;;
77591;SDS011;66891;46.884;17.436;2024-03-23T01:24:31;8.27;;;3.10;;
77591;SDS011;66891;46.884;17.436;2024-03-23T01:26:56;10.18;;;3.70;;
77591;SDS011;66891;46.884;17.436;2024-03-23T01:29:24;10.45;;;3.08;;
77591;SDS011;66891;46.884;17.436;2024-03-23T01:31:50;8.23;;;2.73;;
77591;SDS011;66891;46.884;17.436;2024-03-23T01:34:16;9.38;;;3.03;;
77591;SDS011;66891;46.884;17.436;2024-03-23T01:36:41;10.30;;;2.97;;
77591;SDS011;66891;46.884;17.436;2024-03-23T01:39:07;10.27;;;3.40;;
77591;SDS011;66891;46.884;17.436;2024-03-23T01:41:35;10.77;;;3.28;;
77591;SDS011;66891;46.884;17.436;2024-03-23T01:44:01;10.38;;;3.35;;
77591;SDS011;66891;46.884;17.436;2024-03-23T01:46:31;9.93;;;3.40;;
77591;SDS011;66891;46.884;17.436;2024-03-23T01:48:58;9.18;;;3.30;;
77591;SDS011;66891;46.884;17.436;2024-03-23T01:51:24;9.77;;;3.87;;
77591;SDS011;66891;46.884;17.436;2024-03-23T01:53:51;9.55;;;2.38;;
77591;SDS011;66891;46.884;17.436;2024-03-23T01:56:18;10.15;;;3.65;;
77591;SDS011;66891;46.884;17.436;2024-03-23T01:58:44;8.82;;;2.88;;
77591;SDS011;66891;46.884;17.436;2024-03-23T02:01:11;9.82;;;2.90;;
77591;SDS011;66891;46.884;17.436;2024-03-23T02:03:38;9.90;;;3.30;;
77591;SDS011;66891;46.884;17.436;2024-03-23T02:06:04;9.50;;;2.75;;
77591;SDS011;66891;46.884;17.436;2024-03-23T02:08:32;9.60;;;3.10;;
77591;SDS011;66891;46.884;17.436;2024-03-23T02:10:59;10.77;;;3.05;;
77591;SDS011;66891;46.884;17.436;2024-03-23T02:13:25;10.17;;;3.37;;
77591;SDS011;66891;46.884;17.436;2024-03-23T02:15:50;9.85;;;2.88;;
77591;SDS011;66891;46.884;17.436;2024-03-23T02:18:16;13.50;;;3.83;;
77591;SDS011;66891;46.884;17.436;2024-03-23T02:20:44;9.38;;;2.95;;
77591;SDS011;66891;46.884;17.436;2024-03-23T02:23:14;11.27;;;3.83;;
77591;SDS011;66891;46.884;17.436;2024-03-23T02:25:40;9.30;;;3.30;;
77591;SDS011;66891;46.884;17.436;2024-03-23T02:28:06;10.98;;;3.55;;
77591;SDS011;66891;46.884;17.436;2024-03-23T02:30:32;8.57;;;3.30;;
77591;SDS011;66891;46.884;17.436;2024-03-23T02:32:58;10.77;;;3.47;;
77591;SDS011;66891;46.884;17.436;2024-03-23T02:35:24;9.82;;;3.53;;
77591;SDS011;66891;46.884;17.436;2024-03-23T02:37:50;10.27;;;3.40;;
77591;SDS011;66891;46.884;17.436;2024-03-23T02:40:17;11.93;;;3.75;;
77591;SDS011;66891;46.884;17.436;2024-03-23T02:42:43;11.70;;;3.50;;
77591;SDS011;66891;46.884;17.436;2024-03-23T02:45:09;11.73;;;3.47;;
77591;SDS011;66891;46.884;17.436;2024-03-23T02:47:35;10.68;;;3.33;;
77591;SDS011;66891;46.884;17.436;2024-03-23T02:50:01;12.18;;;3.88;;
77591;SDS011;66891;46.884;17.436;2024-03-23T02:52:27;11.57;;;4.03;;
77591;SDS011;66891;46.884;17.436;2024-03-23T02:54:53;12.10;;;3.57;;
77591;SDS011;66891;46.884;17.436;2024-03-23T02:57:22;11.85;;;3.42;;
77591;SDS011;66891;46.884;17.436;2024-03-23T02:59:48;11.30;;;4.15;;
77591;SDS011;66891;46.884;17.436;2024-03-23T03:02:15;10.70;;;3.43;;
77591;SDS011;66891;46.884;17.436;2024-03-23T03:04:41;12.93;;;3.73;;
77591;SDS011;66891;46.884;17.436;2024-03-23T03:07:07;10.65;;;3.38;;
77591;SDS011;66891;46.884;17.436;2024-03-23T03:09:33;10.65;;;3.35;;
77591;SDS011;66891;46.884;17.436;2024-03-23T03:12:01;12.32;;;4.30;;
77591;SDS011;66891;46.884;17.436;2024-03-23T03:14:28;11.20;;;3.63;;
77591;SDS011;66891;46.884;17.436;2024-03-23T03:16:54;11.13;;;4.00;;
77591;SDS011;66891;46.884;17.436;2024-03-23T03:19:20;10.50;;;3.85;;
77591;SDS011;66891;46.884;17.436;2024-03-23T03:21:46;10.60;;;3.70;;
77591;SDS011;66891;46.884;17.436;2024-03-23T03:24:13;9.73;;;4.20;;
77591;SDS011;66891;46.884;17.436;2024-03-23T03:26:39;11.93;;;4.00;;
77591;SDS011;66891;46.884;17.436;2024-03-23T03:29:05;12.13;;;4.60;;
77591;SDS011;66891;46.884;17.436;2024-03-23T03:31:32;10.35;;;3.85;;
77591;SDS011;66891;46.884;17.436;2024-03-23T03:33:58;10.17;;;3.27;;
77591;SDS011;66891;46.884;17.436;2024-03-23T03:36:24;10.63;;;3.85;;
77591;SDS011;66891;46.884;17.436;2024-03-23T03:38:50;10.43;;;3.78;;
77591;SDS011;66891;46.884;17.436;2024-03-23T03:41:17;11.73;;;4.05;;
77591;SDS011;66891;46.884;17.436;2024-03-23T03:43:43;12.40;;;4.50;;
77591;SDS011;66891;46.884;17.436;2024-03-23T03:46:09;12.45;;;4.47;;
77591;SDS011;66891;46.884;17.436;2024-03-23T03:48:38;13.40;;;4.75;;
77591;SDS011;66891;46.884;17.436;2024-03-23T03:51:04;13.13;;;4.25;;
77591;SDS011;66891;46.884;17.436;2024-03-23T03:53:30;11.77;;;3.75;;
77591;SDS011;66891;46.884;17.436;2024-03-23T03:55:56;11.03;;;4.43;;
77591;SDS011;66891;46.884;17.436;2024-03-23T03:58:22;12.30;;;4.20;;
77591;SDS011;66891;46.884;17.436;2024-03-23T04:00:48;12.18;;;4.40;;
77591;SDS011;66891;46.884;17.436;2024-03-23T04:03:14;11.68;;;4.03;;
77591;SDS011;66891;46.884;17.436;2024-03-23T04:05:41;12.53;;;4.20;;
77591;SDS011;66891;46.884;17.436;2024-03-23T04:08:07;10.13;;;3.70;;
77591;SDS011;66891;46.884;17.436;2024-03-23T04:10:33;14.30;;;4.72;;
77591;SDS011;66891;46.884;17.436;2024-03-23T04:13:00;11.57;;;3.63;;
77591;SDS011;66891;46.884;17.436;2024-03-23T04:15:26;10.43;;;3.92;;
77591;SDS011;66891;46.884;17.436;2024-03-23T04:17:52;8.83;;;3.03;;
77591;SDS011;66891;46.884;17.436;2024-03-23T04:20:18;11.43;;;3.72;;
77591;SDS011;66891;46.884;17.436;2024-03-23T04:22:46;12.95;;;4.35;;
77591;SDS011;66891;46.884;17.436;2024-03-23T04:25:13;12.27;;;3.65;;
77591;SDS011;66891;46.884;17.436;2024-03-23T04:27:39;11.87;;;4.10;;
77591;SDS011;66891;46.884;17.436;2024-03-23T04:30:05;11.77;;;4.15;;
77591;SDS011;66891;46.884;17.436;2024-03-23T04:32:36;12.43;;;4.55;;
77591;SDS011;66891;46.884;17.436;2024-03-23T04:35:02;12.68;;;4.90;;
77591;SDS011;66891;46.884;17.436;2024-03-23T04:37:31;15.38;;;5.03;;
77591;SDS011;66891;46.884;17.436;2024-03-23T04:39:59;12.47;;;4.07;;
77591;SDS011;66891;46.884;17.436;2024-03-23T04:42:26;12.60;;;4.30;;
77591;SDS011;66891;46.884;17.436;2024-03-23T04:44:51;12.05;;;3.97;;
77591;SDS011;66891;46.884;17.436;2024-03-23T04:47:17;12.00;;;4.18;;
77591;SDS011;66891;46.884;17.436;2024-03-23T04:49:44;11.70;;;4.20;;
77591;SDS011;66891;46.884;17.436;2024-03-23T04:52:10;10.60;;;4.50;;
77591;SDS011;66891;46.884;17.436;2024-03-23T04:54:36;11.93;;;4.80;;
77591;SDS011;66891;46.884;17.436;2024-03-23T04:57:03;13.02;;;4.80;;
77591;SDS011;66891;46.884;17.436;2024-03-23T04:59:29;10.77;;;4.23;;
77591;SDS011;66891;46.884;17.436;2024-03-23T05:01:55;12.02;;;5.03;;
77591;SDS011;66891;46.884;17.436;2024-03-23T05:04:21;12.30;;;3.75;;
77591;SDS011;66891;46.884;17.436;2024-03-23T05:06:47;12.13;;;4.43;;
77591;SDS011;66891;46.884;17.436;2024-03-23T05:09:13;14.37;;;4.13;;
77591;SDS011;66891;46.884;17.436;2024-03-23T05:11:39;12.15;;;4.85;;
77591;SDS011;66891;46.884;17.436;2024-03-23T05:14:06;13.82;;;4.50;;
77591;SDS011;66891;46.884;17.436;2024-03-23T05:16:32;12.02;;;4.50;;
77591;SDS011;66891;46.884;17.436;2024-03-23T05:18:58;12.17;;;5.07;;
77591;SDS011;66891;46.884;17.436;2024-03-23T05:21:24;12.60;;;5.18;;
77591;SDS011;66891;46.884;17.436;2024-03-23T05:23:50;12.77;;;4.25;;
77591;SDS011;66891;46.884;17.436;2024-03-23T05:26:17;11.88;;;4.38;;
77591;SDS011;66891;46.884;17.436;2024-03-23T05:28:44;13.27;;;4.20;;
77591;SDS011;66891;46.884;17.436;2024-03-23T05:31:12;12.40;;;5.28;;
77591;SDS011;66891;46.884;17.436;2024-03-23T05:33:38;16.73;;;5.10;;
77591;SDS011;66891;46.884;17.436;2024-03-23T05:36:04;16.88;;;6.15;;
77591;SDS011;66891;46.884;17.436;2024-03-23T05:38:30;12.37;;;4.70;;
77591;SDS011;66891;46.884;17.436;2024-03-23T05:40:56;12.30;;;4.72;;
77591;SDS011;66891;46.884;17.436;2024-03-23T05:43:23;12.60;;;4.50;;
77591;SDS011;66891;46.884;17.436;2024-03-23T05:45:53;11.25;;;4.30;;
77591;SDS011;66891;46.884;17.436;2024-03-23T05:48:20;11.50;;;4.07;;
77591;SDS011;66891;46.884;17.436;2024-03-23T05:50:46;11.17;;;4.00;;
77591;SDS011;66891;46.884;17.436;2024-03-23T05:53:12;16.80;;;5.57;;
77591;SDS011;66891;46.884;17.436;2024-03-23T05:55:38;14.05;;;4.88;;
77591;SDS011;66891;46.884;17.436;2024-03-23T05:58:04;14.93;;;4.97;;
77591;SDS011;66891;46.884;17.436;2024-03-23T06:00:30;12.27;;;4.63;;
77591;SDS011;66891;46.884;17.436;2024-03-23T06:02:56;12.93;;;4.97;;
77591;SDS011;66891;46.884;17.436;2024-03-23T06:05:24;12.38;;;4.40;;
77591;SDS011;66891;46.884;17.436;2024-03-23T06:07:50;13.88;;;4.80;;
77591;SDS011;66891;46.884;17.436;2024-03-23T06:10:19;13.95;;;4.78;;
77591;SDS011;66891;46.884;17.436;2024-03-23T06:12:45;12.27;;;4.77;;
77591;SDS011;66891;46.884;17.436;2024-03-23T06:15:12;11.02;;;4.25;;
77591;SDS011;66891;46.884;17.436;2024-03-23T06:17:38;12.60;;;4.65;;
77591;SDS011;66891;46.884;17.436;2024-03-23T06:20:04;15.68;;;5.65;;
77591;SDS011;66891;46.884;17.436;2024-03-23T06:22:33;15.07;;;5.90;;
77591;SDS011;66891;46.884;17.436;2024-03-23T06:24:59;14.73;;;5.05;;
77591;SDS011;66891;46.884;17.436;2024-03-23T06:27:25;14.70;;;5.35;;
77591;SDS011;66891;46.884;17.436;2024-03-23T06:29:51;12.55;;;5.15;;
77591;SDS011;66891;46.884;17.436;2024-03-23T06:32:17;14.03;;;4.03;;
77591;SDS011;66891;46.884;17.436;2024-03-23T06:34:43;13.97;;;4.73;;
77591;SDS011;66891;46.884;17.436;2024-03-23T06:37:09;11.52;;;4.55;;
77591;SDS011;66891;46.884;17.436;2024-03-23T06:39:39;12.10;;;4.82;;
77591;SDS011;66891;46.884;17.436;2024-03-23T06:42:05;13.18;;;4.90;;
77591;SDS011;66891;46.884;17.436;2024-03-23T06:44:31;12.15;;;4.20;;
77591;SDS011;66891;46.884;17.436;2024-03-23T06:46:57;12.23;;;4.70;;
77591;SDS011;66891;46.884;17.436;2024-03-23T06:49:23;13.93;;;5.15;;
77591;SDS011;66891;46.884;17.436;2024-03-23T06:51:49;11.63;;;4.78;;
77591;SDS011;66891;46.884;17.436;2024-03-23T06:54:16;15.03;;;4.90;;
77591;SDS011;66891;46.884;17.436;2024-03-23T06:56:43;14.87;;;4.60;;
77591;SDS011;66891;46.884;17.436;2024-03-23T06:59:10;14.65;;;5.13;;
77591;SDS011;66891;46.884;17.436;2024-03-23T07:01:37;14.13;;;4.47;;
77591;SDS011;66891;46.884;17.436;2024-03-23T07:04:03;14.02;;;4.50;;
77591;SDS011;66891;46.884;17.436;2024-03-23T07:06:29;12.52;;;4.50;;
77591;SDS011;66891;46.884;17.436;2024-03-23T07:08:55;17.00;;;5.27;;
77591;SDS011;66891;46.884;17.436;2024-03-23T07:11:21;11.45;;;4.47;;
77591;SDS011;66891;46.884;17.436;2024-03-23T07:13:50;11.77;;;4.20;;
77591;SDS011;66891;46.884;17.436;2024-03-23T07:16:16;11.98;;;4.90;;
77591;SDS011;66891;46.884;17.436;2024-03-23T07:18:42;11.37;;;4.53;;
77591;SDS011;66891;46.884;17.436;2024-03-23T07:21:08;13.07;;;4.53;;
77591;SDS011;66891;46.884;17.436;2024-03-23T07:23:34;10.60;;;3.92;;
77591;SDS011;66891;46.884;17.436;2024-03-23T07:26:00;10.80;;;4.33;;
77591;SDS011;66891;46.884;17.436;2024-03-23T07:28:27;13.25;;;4.93;;
77591;SDS011;66891;46.884;17.436;2024-03-23T07:31:02;12.82;;;4.57;;
77591;SDS011;66891;46.884;17.436;2024-03-23T07:33:29;10.93;;;4.38;;
77591;SDS011;66891;46.884;17.436;2024-03-23T07:35:54;12.52;;;5.22;;
77591;SDS011;66891;46.884;17.436;2024-03-23T07:38:21;11.77;;;4.33;;
77591;SDS011;66891;46.884;17.436;2024-03-23T07:40:47;11.45;;;5.28;;
77591;SDS011;66891;46.884;17.436;2024-03-23T07:43:15;12.45;;;4.97;;
77591;SDS011;66891;46.884;17.436;2024-03-23T07:45:41;11.63;;;4.60;;
77591;SDS011;66891;46.884;17.436;2024-03-23T07:48:08;10.67;;;4.23;;
77591;SDS011;66891;46.884;17.436;2024-03-23T07:50:35;13.75;;;4.82;;
77591;SDS011;66891;46.884;17.436;2024-03-23T07:53:01;11.10;;;4.05;;
77591;SDS011;66891;46.884;17.436;2024-03-23T07:55:26;12.15;;;4.22;;
77591;SDS011;66891;46.884;17.436;2024-03-23T07:57:52;11.33;;;4.27;;
77591;SDS011;66891;46.884;17.436;2024-03-23T08:00:19;11.57;;;4.65;;
77591;SDS011;66891;46.884;17.436;2024-03-23T08:02:45;10.85;;;4.28;;
77591;SDS011;66891;46.884;17.436;2024-03-23T08:05:12;13.30;;;5.07;;
77591;SDS011;66891;46.884;17.436;2024-03-23T08:07:38;11.25;;;4.10;;
77591;SDS011;66891;46.884;17.436;2024-03-23T08:10:05;13.10;;;4.47;;
77591;SDS011;66891;46.884;17.436;2024-03-23T08:12:31;13.77;;;4.63;;
77591;SDS011;66891;46.884;17.436;2024-03-23T08:14:57;12.75;;;5.38;;
77591;SDS011;66891;46.884;17.436;2024-03-23T08:17:22;14.57;;;4.97;;
77591;SDS011;66891;46.884;17.436;2024-03-23T08:19:48;12.63;;;5.03;;
77591;SDS011;66891;46.884;17.436;2024-03-23T08:22:16;12.20;;;4.78;;
77591;SDS011;66891;46.884;17.436;2024-03-23T08:24:42;11.98;;;4.35;;
77591;SDS011;66891;46.884;17.436;2024-03-23T08:27:08;10.57;;;4.30;;
77591;SDS011;66891;46.884;17.436;2024-03-23T08:29:34;10.47;;;4.17;;
77591;SDS011;66891;46.884;17.436;2024-03-23T08:32:04;10.98;;;3.78;;
77591;SDS011;66891;46.884;17.436;2024-03-23T08:34:30;10.48;;;4.55;;
77591;SDS011;66891;46.884;17.436;2024-03-23T08:36:56;9.85;;;4.25;;
77591;SDS011;66891;46.884;17.436;2024-03-23T08:39:23;11.03;;;3.87;;
77591;SDS011;66891;46.884;17.436;2024-03-23T08:41:50;11.70;;;4.47;;
77591;SDS011;66891;46.884;17.436;2024-03-23T08:44:16;11.13;;;4.00;;
77591;SDS011;66891;46.884;17.436;2024-03-23T08:46:42;9.80;;;3.83;;
77591;SDS011;66891;46.884;17.436;2024-03-23T08:49:08;10.83;;;3.97;;
77591;SDS011;66891;46.884;17.436;2024-03-23T08:51:34;9.68;;;4.03;;
77591;SDS011;66891;46.884;17.436;2024-03-23T08:54:00;9.15;;;3.75;;
77591;SDS011;66891;46.884;17.436;2024-03-23T08:56:28;9.95;;;3.83;;
77591;SDS011;66891;46.884;17.436;2024-03-23T08:58:54;9.57;;;3.58;;
77591;SDS011;66891;46.884;17.436;2024-03-23T09:01:20;11.40;;;4.00;;
77591;SDS011;66891;46.884;17.436;2024-03-23T09:03:46;9.55;;;3.35;;
77591;SDS011;66891;46.884;17.436;2024-03-23T09:06:12;10.15;;;3.65;;
77591;SDS011;66891;46.884;17.436;2024-03-23T09:08:38;8.43;;;3.50;;
77591;SDS011;66891;46.884;17.436;2024-03-23T09:11:06;9.37;;;3.67;;
77591;SDS011;66891;46.884;17.436;2024-03-23T09:13:34;8.52;;;3.15;;
77591;SDS011;66891;46.884;17.436;2024-03-23T09:16:00;10.13;;;3.80;;
77591;SDS011;66891;46.884;17.436;2024-03-23T09:18:26;9.52;;;3.35;;
77591;SDS011;66891;46.884;17.436;2024-03-23T09:20:52;10.83;;;4.07;;
77591;SDS011;66891;46.884;17.436;2024-03-23T09:23:21;10.15;;;3.88;;
77591;SDS011;66891;46.884;17.436;2024-03-23T09:25:47;8.88;;;3.20;;
77591;SDS011;66891;46.884;17.436;2024-03-23T09:28:13;9.48;;;3.40;;
77591;SDS011;66891;46.884;17.436;2024-03-23T09:30:41;8.90;;;3.40;;
77591;SDS011;66891;46.884;17.436;2024-03-23T09:33:10;10.80;;;3.57;;
77591;SDS011;66891;46.884;17.436;2024-03-23T09:35:37;7.90;;;2.75;;
77591;SDS011;66891;46.884;17.436;2024-03-23T09:38:03;9.73;;;3.50;;
77591;SDS011;66891;46.884;17.436;2024-03-23T09:40:29;9.15;;;2.88;;
77591;SDS011;66891;46.884;17.436;2024-03-23T09:42:55;10.40;;;3.42;;
77591;SDS011;66891;46.884;17.436;2024-03-23T09:45:26;9.17;;;3.00;;
77591;SDS011;66891;46.884;17.436;2024-03-23T09:47:54;8.80;;;3.03;;
77591;SDS011;66891;46.884;17.436;2024-03-23T09:50:20;8.43;;;3.60;;
77591;SDS011;66891;46.884;17.436;2024-03-23T09:52:49;7.82;;;2.78;;
77591;SDS011;66891;46.884;17.436;2024-03-23T09:55:15;8.45;;;3.25;;
77591;SDS011;66891;46.884;17.436;2024-03-23T09:57:41;8.73;;;3.20;;
77591;SDS011;66891;46.884;17.436;2024-03-23T10:00:08;7.53;;;3.05;;
77591;SDS011;66891;46.884;17.436;2024-03-23T10:02:35;9.85;;;3.17;;
77591;SDS011;66891;46.884;17.436;2024-03-23T10:05:02;9.27;;;3.20;;
77591;SDS011;66891;46.884;17.436;2024-03-23T10:07:28;9.25;;;3.28;;
77591;SDS011;66891;46.884;17.436;2024-03-23T10:09:54;7.73;;;2.50;;
77591;SDS011;66891;46.884;17.436;2024-03-23T10:12:22;8.32;;;2.70;;
77591;SDS011;66891;46.884;17.436;2024-03-23T10:14:49;9.55;;;3.17;;
77591;SDS011;66891;46.884;17.436;2024-03-23T10:17:17;9.10;;;2.72;;
77591;SDS011;66891;46.884;17.436;2024-03-23T10:19:43;7.40;;;2.60;;
77591;SDS011;66891;46.884;17.436;2024-03-23T10:22:12;7.73;;;2.67;;
77591;SDS011;66891;46.884;17.436;2024-03-23T10:24:38;7.65;;;2.70;;
77591;SDS011;66891;46.884;17.436;2024-03-23T10:27:05;9.68;;;3.05;;
77591;SDS011;66891;46.884;17.436;2024-03-23T10:29:31;8.30;;;2.97;;
77591;SDS011;66891;46.884;17.436;2024-03-23T10:32:07;9.80;;;2.57;;
77591;SDS011;66891;46.884;17.436;2024-03-23T10:34:33;8.23;;;2.87;;
77591;SDS011;66891;46.884;17.436;2024-03-23T10:36:59;8.73;;;3.28;;
77591;SDS011;66891;46.884;17.436;2024-03-23T10:39:29;9.05;;;2.88;;
77591;SDS011;66891;46.884;17.436;2024-03-23T10:41:55;8.57;;;2.70;;
77591;SDS011;66891;46.884;17.436;2024-03-23T10:44:21;7.33;;;2.57;;
77591;SDS011;66891;46.884;17.436;2024-03-23T10:46:51;7.55;;;2.50;;
77591;SDS011;66891;46.884;17.436;2024-03-23T10:49:25;7.18;;;2.17;;
77591;SDS011;66891;46.884;17.436;2024-03-23T10:51:51;7.05;;;2.38;;
77591;SDS011;66891;46.884;17.436;2024-03-23T10:54:17;8.10;;;2.55;;
77591;SDS011;66891;46.884;17.436;2024-03-23T10:56:45;8.17;;;2.67;;
77591;SDS011;66891;46.884;17.436;2024-03-23T10:59:12;7.28;;;2.78;;
77591;SDS011;66891;46.884;17.436;2024-03-23T11:01:46;8.38;;;2.63;;
77591;SDS011;66891;46.884;17.436;2024-03-23T11:04:29;7.18;;;2.60;;
77591;SDS011;66891;46.884;17.436;2024-03-23T11:06:55;6.75;;;2.63;;
77591;SDS011;66891;46.884;17.436;2024-03-23T11:12:06;7.75;;;2.63;;
77591;SDS011;66891;46.884;17.436;2024-03-23T11:14:42;7.57;;;2.50;;
77591;SDS011;66891;46.884;17.436;2024-03-23T11:17:09;7.40;;;2.42;;
77591;SDS011;66891;46.884;17.436;2024-03-23T11:19:36;7.50;;;2.53;;
77591;SDS011;66891;46.884;17.436;2024-03-23T11:22:02;6.45;;;1.80;;
77591;SDS011;66891;46.884;17.436;2024-03-23T11:24:29;7.22;;;1.55;;
77591;SDS011;66891;46.884;17.436;2024-03-23T11:26:55;5.50;;;1.60;;
77591;SDS011;66891;46.884;17.436;2024-03-23T11:29:22;6.22;;;1.58;;
77591;SDS011;66891;46.884;17.436;2024-03-23T11:31:48;5.67;;;1.97;;
77591;SDS011;66891;46.884;17.436;2024-03-23T11:34:15;7.40;;;1.75;;
77591;SDS011;66891;46.884;17.436;2024-03-23T11:36:41;5.25;;;1.38;;
77591;SDS011;66891;46.884;17.436;2024-03-23T11:39:13;6.43;;;1.70;;
77591;SDS011;66891;46.884;17.436;2024-03-23T11:41:46;7.22;;;1.90;;
77591;SDS011;66891;46.884;17.436;2024-03-23T11:44:17;5.70;;;1.47;;
77591;SDS011;66891;46.884;17.436;2024-03-23T11:46:45;5.03;;;1.40;;
77591;SDS011;66891;46.884;17.436;2024-03-23T11:51:55;6.07;;;1.52;;
77591;SDS011;66891;46.884;17.436;2024-03-23T11:54:21;6.28;;;1.42;;
77591;SDS011;66891;46.884;17.436;2024-03-23T11:56:54;6.03;;;1.40;;
77591;SDS011;66891;46.884;17.436;2024-03-23T11:59:29;7.43;;;1.90;;
77591;SDS011;66891;46.884;17.436;2024-03-23T12:01:57;6.50;;;2.25;;
77591;SDS011;66891;46.884;17.436;2024-03-23T12:04:25;6.35;;;1.55;;
77591;SDS011;66891;46.884;17.436;2024-03-23T12:06:51;6.43;;;1.83;;
77591;SDS011;66891;46.884;17.436;2024-03-23T12:09:17;5.20;;;1.57;;
77591;SDS011;66891;46.884;17.436;2024-03-23T12:11:43;5.90;;;1.50;;
77591;SDS011;66891;46.884;17.436;2024-03-23T12:14:09;5.20;;;1.02;;
77591;SDS011;66891;46.884;17.436;2024-03-23T12:16:35;5.60;;;1.57;;
77591;SDS011;66891;46.884;17.436;2024-03-23T12:19:05;5.93;;;1.45;;
77591;SDS011;66891;46.884;17.436;2024-03-23T12:21:31;5.55;;;1.55;;
77591;SDS011;66891;46.884;17.436;2024-03-23T12:23:57;5.50;;;1.33;;
77591;SDS011;66891;46.884;17.436;2024-03-23T12:26:24;5.63;;;1.65;;
77591;SDS011;66891;46.884;17.436;2024-03-23T12:28:50;5.83;;;1.83;;
77591;SDS011;66891;46.884;17.436;2024-03-23T12:31:16;6.50;;;1.48;;
77591;SDS011;66891;46.884;17.436;2024-03-23T12:33:42;6.03;;;1.40;;
77591;SDS011;66891;46.884;17.436;2024-03-23T12:36:11;5.55;;;1.73;;
77591;SDS011;66891;46.884;17.436;2024-03-23T12:38:37;5.63;;;1.30;;
77591;SDS011;66891;46.884;17.436;2024-03-23T12:41:03;5.38;;;1.05;;
77591;SDS011;66891;46.884;17.436;2024-03-23T12:43:30;4.78;;;1.23;;
77591;SDS011;66891;46.884;17.436;2024-03-23T12:45:56;4.25;;;1.10;;
77591;SDS011;66891;46.884;17.436;2024-03-23T12:48:22;4.77;;;0.97;;
77591;SDS011;66891;46.884;17.436;2024-03-23T12:50:48;6.25;;;1.00;;
77591;SDS011;66891;46.884;17.436;2024-03-23T12:53:16;4.32;;;0.90;;
77591;SDS011;66891;46.884;17.436;2024-03-23T12:55:42;3.95;;;0.90;;
77591;SDS011;66891;46.884;17.436;2024-03-23T12:58:08;10.93;;;1.20;;
77591;SDS011;66891;46.884;17.436;2024-03-23T13:00:34;5.30;;;0.95;;
77591;SDS011;66891;46.884;17.436;2024-03-23T13:03:00;5.75;;;1.15;;
77591;SDS011;66891;46.884;17.436;2024-03-23T13:05:26;4.05;;;0.68;;
77591;SDS011;66891;46.884;17.436;2024-03-23T13:07:52;4.30;;;0.77;;
77591;SDS011;66891;46.884;17.436;2024-03-23T13:10:20;3.83;;;0.80;;
77591;SDS011;66891;46.884;17.436;2024-03-23T13:12:46;4.43;;;1.08;;
77591;SDS011;66891;46.884;17.436;2024-03-23T13:15:12;4.38;;;0.90;;
77591;SDS011;66891;46.884;17.436;2024-03-23T13:17:38;4.77;;;0.93;;
77591;SDS011;66891;46.884;17.436;2024-03-23T13:20:04;4.27;;;0.90;;
77591;SDS011;66891;46.884;17.436;2024-03-23T13:22:30;4.28;;;1.02;;
77591;SDS011;66891;46.884;17.436;2024-03-23T13:24:56;4.53;;;0.90;;
77591;SDS011;66891;46.884;17.436;2024-03-23T13:27:23;4.07;;;0.93;;
77591;SDS011;66891;46.884;17.436;2024-03-23T13:29:49;5.03;;;0.90;;
77591;SDS011;66891;46.884;17.436;2024-03-23T13:32:16;4.78;;;1.08;;
77591;SDS011;66891;46.884;17.436;2024-03-23T13:34:42;4.00;;;0.90;;
77591;SDS011;66891;46.884;17.436;2024-03-23T13:37:08;4.15;;;0.90;;
77591;SDS011;66891;46.884;17.436;2024-03-23T13:39:34;4.37;;;0.90;;
77591;SDS011;66891;46.884;17.436;2024-03-23T13:42:00;6.05;;;1.30;;
77591;SDS011;66891;46.884;17.436;2024-03-23T13:44:27;5.15;;;1.00;;
77591;SDS011;66891;46.884;17.436;2024-03-23T13:46:53;6.13;;;1.17;;
77591;SDS011;66891;46.884;17.436;2024-03-23T13:49:26;4.27;;;0.90;;
77591;SDS011;66891;46.884;17.436;2024-03-23T13:51:52;5.30;;;1.20;;
77591;SDS011;66891;46.884;17.436;2024-03-23T13:54:18;5.38;;;1.10;;
77591;SDS011;66891;46.884;17.436;2024-03-23T13:56:44;6.18;;;1.50;;
77591;SDS011;66891;46.884;17.436;2024-03-23T13:59:10;5.70;;;1.53;;
77591;SDS011;66891;46.884;17.436;2024-03-23T14:01:37;5.30;;;1.50;;
77591;SDS011;66891;46.884;17.436;2024-03-23T14:04:04;5.70;;;1.67;;
77591;SDS011;66891;46.884;17.436;2024-03-23T14:06:30;5.53;;;1.58;;
77591;SDS011;66891;46.884;17.436;2024-03-23T14:08:56;6.67;;;1.73;;
77591;SDS011;66891;46.884;17.436;2024-03-23T14:11:22;5.40;;;1.50;;
77591;SDS011;66891;46.884;17.436;2024-03-23T14:13:48;4.90;;;1.27;;
77591;SDS011;66891;46.884;17.436;2024-03-23T14:16:14;5.53;;;1.08;;
77591;SDS011;66891;46.884;17.436;2024-03-23T14:18:41;5.00;;;1.35;;
77591;SDS011;66891;46.884;17.436;2024-03-23T14:21:08;5.03;;;1.60;;
77591;SDS011;66891;46.884;17.436;2024-03-23T14:23:36;5.18;;;1.40;;
77591;SDS011;66891;46.884;17.436;2024-03-23T14:26:03;5.43;;;1.25;;
77591;SDS011;66891;46.884;17.436;2024-03-23T14:28:30;6.10;;;1.67;;
77591;SDS011;66891;46.884;17.436;2024-03-23T14:30:56;5.95;;;1.50;;
77591;SDS011;66891;46.884;17.436;2024-03-23T14:33:22;5.00;;;1.43;;
77591;SDS011;66891;46.884;17.436;2024-03-23T14:35:52;4.43;;;1.30;;
77591;SDS011;66891;46.884;17.436;2024-03-23T14:38:19;6.78;;;1.65;;
77591;SDS011;66891;46.884;17.436;2024-03-23T14:40:45;6.03;;;1.83;;
77591;SDS011;66891;46.884;17.436;2024-03-23T14:43:11;3.83;;;0.93;;
77591;SDS011;66891;46.884;17.436;2024-03-23T14:45:37;5.07;;;1.63;;
77591;SDS011;66891;46.884;17.436;2024-03-23T14:48:15;4.88;;;1.30;;
77591;SDS011;66891;46.884;17.436;2024-03-23T14:50:41;5.32;;;1.55;;
77591;SDS011;66891;46.884;17.436;2024-03-23T14:53:09;5.90;;;1.60;;
77591;SDS011;66891;46.884;17.436;2024-03-23T14:55:35;4.65;;;1.08;;
77591;SDS011;66891;46.884;17.436;2024-03-23T14:58:01;5.25;;;1.73;;
77591;SDS011;66891;46.884;17.436;2024-03-23T15:00:27;5.78;;;1.20;;
77591;SDS011;66891;46.884;17.436;2024-03-23T15:02:53;6.93;;;1.70;;
77591;SDS011;66891;46.884;17.436;2024-03-23T15:05:19;5.70;;;1.60;;
77591;SDS011;66891;46.884;17.436;2024-03-23T15:07:46;5.97;;;1.50;;
77591;SDS011;66891;46.884;17.436;2024-03-23T15:10:14;5.15;;;1.15;;
77591;SDS011;66891;46.884;17.436;2024-03-23T15:12:41;5.68;;;1.50;;
77591;SDS011;66891;46.884;17.436;2024-03-23T15:15:07;5.38;;;1.20;;
77591;SDS011;66891;46.884;17.436;2024-03-23T15:17:33;6.73;;;1.60;;
77591;SDS011;66891;46.884;17.436;2024-03-23T15:20:02;5.43;;;1.60;;
77591;SDS011;66891;46.884;17.436;2024-03-23T15:22:31;5.25;;;1.20;;
77591;SDS011;66891;46.884;17.436;2024-03-23T15:24:59;5.35;;;1.55;;